Millsboro, DE

03:38 EDT le 31 octobre 2014 (GMT -0400)
KDELONGN3 | Change Station
CLOSE
Current Station
Stations météorologiques personnelles
Location: Long Neck, DE
Altitude: 10 ft
Stations météo à proximité

Alt. 10 ft 38.63 °N, 75.11 °W | Updated 14 minutes ago

Ciel dégagé
Ciel dégagé
52.7 ° F
Paraît 52.7 ° F
N
5.3
Vent Variable Vent de ESE

Aujourd'hui
Haut(e) -- | Bas -- ° F
--% Risque de précip.
Hier
Haut(e) -- | Bas -- ° F
Precip. -- pouce
7:26 AM 6:01 PM
Premier quartier, 52% visible
Pression 30.01 pouce
Visibilité 10.0 Miles terrestres
Nuages Ciel dégagé
Point de rosée Non disponible.
Humidité Non disponible.
Précipitations 0.00 pouce
Profondeur de la couche neigeuse Non disponible.
UV 0 sur 12
Pollen .30 sur 12
Qualité de l'air Non disponible.
Flu Activity Non disponible.
METAR KGED 310654Z AUTO 00000KT 10SM CLR 05/03 A3001 RMK AO2 SLP161 T00500028 $

More Conditions Fewer Conditions

Pression 30.01 pouce
Visibilité 10.0 Miles terrestres
Nuages Ciel dégagé
Point de rosée Non disponible.
Humidité Non disponible.
Précipitations 0.00 pouce
Profondeur de la couche neigeuse Non disponible.
UV 0 sur 12
Pollen .30 sur 12
Qualité de l'air Non disponible.
Flu Activity Non disponible.
METAR KGED 310654Z AUTO 00000KT 10SM CLR 05/03 A3001 RMK AO2 SLP161 T00500028 $

More Conditions Fewer Conditions

10-Day Weather Forecast

Almanac

Astronomie

Oct. 31, 2014 Lever Coucher
Temps réel
Crépuscule civil
Crépuscule nautique
Crépuscule astronomique
Lune
Durée de lumière visible
Longueur du jour
Tomorrow will be .
, % of the Moon is Illuminated

Extrêmes aujourd'hui

State Highs State Lows

Community

WunderPhotos

Upload Photos

1,766,573 Photos téléchargées !

WunderBlogs® & News

Nearby

Qualité de l'air

  Qualité de l'air Indice de la qualité de l'air Polluant
Not available.

Épaisseur de neige

Station Depth Altitude

Activité sismique

Ville Distance Mag. Time & Date
Minimum magnitude displayed is 2.5.

Températures des eaux côtières

Lieu Température

Stations météo à proximité